Terminal Aerodrome Forecast
Issued by NWS Twin Cities, MN

Home | Current Version | Previous Version | Text Only | Print | Product List | Glossary On
Versions: 1 2 3 4 5 6 7 8 9 10 11 12 13 14 15 16
000
FTUS43 KMPX 311700
TAFEAU
TAF
KEAU 311720Z 3118/0118 01012G23KT P6SM BKN040
     FM312000 36012KT P6SM SCT040
     FM312300 02004KT P6SM SKC
     FM010600 VRB02KT P6SM SKC
     FM011500 17005KT P6SM SCT200=

USA.gov is the U.S. government's official web portal to all federal, state and local government web resources and services.